sensor_id;sensor_type;location;lat;lon;timestamp;pressure;altitude;pressure_sealevel;temperature;humidity
27425;BME280;15244;49.088;11.886;2022-08-01T00:01:24;95699.66;;;26.22;32.14
27425;BME280;15244;49.088;11.886;2022-08-01T00:06:27;95700.13;;;26.20;31.75
27425;BME280;15244;49.088;11.886;2022-08-01T00:11:32;95697.56;;;26.16;31.71
27425;BME280;15244;49.088;11.886;2022-08-01T00:16:35;95698.03;;;26.15;31.86
27425;BME280;15244;49.088;11.886;2022-08-01T00:21:37;95692.66;;;26.11;32.35
27425;BME280;15244;49.088;11.886;2022-08-01T00:26:52;95691.09;;;26.10;32.01
27425;BME280;15244;49.088;11.886;2022-08-01T00:31:54;95692.84;;;26.08;32.24
27425;BME280;15244;49.088;11.886;2022-08-01T00:36:56;95692.59;;;26.06;32.25
27425;BME280;15244;49.088;11.886;2022-08-01T00:42:12;95683.16;;;26.03;32.75
27425;BME280;15244;49.088;11.886;2022-08-01T00:47:13;95677.75;;;26.00;32.50
27425;BME280;15244;49.088;11.886;2022-08-01T00:52:15;95683.06;;;25.98;33.06
27425;BME280;15244;49.088;11.886;2022-08-01T00:57:18;95682.00;;;25.95;32.83
27425;BME280;15244;49.088;11.886;2022-08-01T01:02:41;95685.78;;;25.92;32.89
27425;BME280;15244;49.088;11.886;2022-08-01T01:13:07;95685.03;;;25.77;32.87
27425;BME280;15244;49.088;11.886;2022-08-01T01:18:17;95686.47;;;25.72;32.86
27425;BME280;15244;49.088;11.886;2022-08-01T01:29:12;95693.72;;;25.64;33.17
27425;BME280;15244;49.088;11.886;2022-08-01T01:34:18;95700.56;;;25.63;33.07
27425;BME280;15244;49.088;11.886;2022-08-01T01:39:24;95695.00;;;25.63;33.47
27425;BME280;15244;49.088;11.886;2022-08-01T01:44:27;95697.50;;;25.61;33.38
27425;BME280;15244;49.088;11.886;2022-08-01T01:49:31;95695.66;;;25.58;33.22
27425;BME280;15244;49.088;11.886;2022-08-01T01:54:40;95697.66;;;25.57;33.18
27425;BME280;15244;49.088;11.886;2022-08-01T01:59:46;95696.13;;;25.56;33.25
27425;BME280;15244;49.088;11.886;2022-08-01T02:04:50;95704.22;;;25.54;33.39
27425;BME280;15244;49.088;11.886;2022-08-01T02:09:55;95700.38;;;25.51;33.35
27425;BME280;15244;49.088;11.886;2022-08-01T02:15:02;95701.34;;;25.48;33.40
27425;BME280;15244;49.088;11.886;2022-08-01T02:20:05;95705.88;;;25.46;33.63
27425;BME280;15244;49.088;11.886;2022-08-01T02:30:24;95714.75;;;25.29;33.32
27425;BME280;15244;49.088;11.886;2022-08-01T02:35:28;95712.81;;;25.21;33.40
27425;BME280;15244;49.088;11.886;2022-08-01T02:40:32;95717.34;;;25.18;33.50
27425;BME280;15244;49.088;11.886;2022-08-01T02:45:39;95721.53;;;25.14;33.35
27425;BME280;15244;49.088;11.886;2022-08-01T02:50:45;95733.34;;;25.08;33.79
27425;BME280;15244;49.088;11.886;2022-08-01T02:55:50;95723.16;;;25.05;33.61
27425;BME280;15244;49.088;11.886;2022-08-01T03:00:53;95725.38;;;25.01;33.86
27425;BME280;15244;49.088;11.886;2022-08-01T03:05:57;95723.84;;;25.00;33.93
27425;BME280;15244;49.088;11.886;2022-08-01T03:11:00;95724.50;;;24.95;34.05
27425;BME280;15244;49.088;11.886;2022-08-01T03:16:04;95742.19;;;24.92;33.81
27425;BME280;15244;49.088;11.886;2022-08-01T03:21:09;95738.66;;;24.92;34.16
27425;BME280;15244;49.088;11.886;2022-08-01T03:26:14;95740.84;;;24.87;34.20
27425;BME280;15244;49.088;11.886;2022-08-01T03:31:17;95739.47;;;24.83;34.22
27425;BME280;15244;49.088;11.886;2022-08-01T03:36:24;95734.88;;;24.80;34.21
27425;BME280;15244;49.088;11.886;2022-08-01T03:41:33;95749.28;;;24.78;34.48
27425;BME280;15244;49.088;11.886;2022-08-01T03:46:40;95752.72;;;24.73;34.61
27425;BME280;15244;49.088;11.886;2022-08-01T03:51:45;95759.72;;;24.69;34.82
27425;BME280;15244;49.088;11.886;2022-08-01T03:56:51;95770.28;;;24.64;34.88
27425;BME280;15244;49.088;11.886;2022-08-01T04:01:54;95769.22;;;24.62;34.93
27425;BME280;15244;49.088;11.886;2022-08-01T04:06:56;95771.91;;;24.56;35.21
27425;BME280;15244;49.088;11.886;2022-08-01T04:11:59;95772.84;;;24.53;35.32
27425;BME280;15244;49.088;11.886;2022-08-01T04:17:12;95774.56;;;24.51;35.43
27425;BME280;15244;49.088;11.886;2022-08-01T04:22:15;95773.66;;;24.44;35.60
27425;BME280;15244;49.088;11.886;2022-08-01T04:27:22;95777.69;;;24.43;35.84
27425;BME280;15244;49.088;11.886;2022-08-01T04:32:46;95784.69;;;24.39;35.88
27425;BME280;15244;49.088;11.886;2022-08-01T04:37:49;95793.69;;;24.34;36.17
27425;BME280;15244;49.088;11.886;2022-08-01T04:42:54;95802.19;;;24.30;36.36
27425;BME280;15244;49.088;11.886;2022-08-01T04:47:57;95795.25;;;24.26;36.49
27425;BME280;15244;49.088;11.886;2022-08-01T04:52:59;95806.88;;;24.24;36.71
27425;BME280;15244;49.088;11.886;2022-08-01T04:58:01;95807.47;;;24.28;36.82
27425;BME280;15244;49.088;11.886;2022-08-01T05:03:03;95822.00;;;24.32;36.88
27425;BME280;15244;49.088;11.886;2022-08-01T05:08:05;95823.56;;;24.33;37.04
27425;BME280;15244;49.088;11.886;2022-08-01T05:13:08;95821.06;;;24.35;37.15
27425;BME280;15244;49.088;11.886;2022-08-01T05:18:10;95828.97;;;24.37;37.19
27425;BME280;15244;49.088;11.886;2022-08-01T05:23:12;95832.50;;;24.37;37.44
27425;BME280;15244;49.088;11.886;2022-08-01T05:28:35;95842.25;;;24.42;37.45
27425;BME280;15244;49.088;11.886;2022-08-01T05:33:36;95837.31;;;24.37;37.83
27425;BME280;15244;49.088;11.886;2022-08-01T05:38:38;95838.09;;;24.37;37.94
27425;BME280;15244;49.088;11.886;2022-08-01T05:43:42;95840.44;;;24.30;38.27
27425;BME280;15244;49.088;11.886;2022-08-01T05:48:44;95850.81;;;24.29;38.47
27425;BME280;15244;49.088;11.886;2022-08-01T05:53:45;95854.69;;;24.32;38.67
27425;BME280;15244;49.088;11.886;2022-08-01T05:58:49;95849.72;;;24.36;38.97
27425;BME280;15244;49.088;11.886;2022-08-01T06:03:52;95849.22;;;24.37;39.12
27425;BME280;15244;49.088;11.886;2022-08-01T06:08:57;95849.84;;;24.41;39.29
27425;BME280;15244;49.088;11.886;2022-08-01T06:13:59;95856.94;;;24.42;39.37
27425;BME280;15244;49.088;11.886;2022-08-01T06:19:00;95862.81;;;24.44;39.77
27425;BME280;15244;49.088;11.886;2022-08-01T06:24:02;95868.84;;;24.52;39.62
27425;BME280;15244;49.088;11.886;2022-08-01T06:29:04;95873.31;;;24.59;39.75
27425;BME280;15244;49.088;11.886;2022-08-01T06:34:06;95873.13;;;24.62;39.73
27425;BME280;15244;49.088;11.886;2022-08-01T06:39:08;95876.78;;;24.69;40.10
27425;BME280;15244;49.088;11.886;2022-08-01T06:44:11;95873.19;;;24.77;39.86
27425;BME280;15244;49.088;11.886;2022-08-01T06:49:13;95870.38;;;24.86;40.04
27425;BME280;15244;49.088;11.886;2022-08-01T06:54:15;95878.34;;;24.94;40.21
27425;BME280;15244;49.088;11.886;2022-08-01T06:59:17;95878.94;;;24.98;40.30
27425;BME280;15244;49.088;11.886;2022-08-01T07:04:19;95884.84;;;25.00;40.12
27425;BME280;15244;49.088;11.886;2022-08-01T07:09:21;95897.06;;;25.02;40.33
27425;BME280;15244;49.088;11.886;2022-08-01T07:14:23;95910.41;;;24.98;40.20
27425;BME280;15244;49.088;11.886;2022-08-01T07:19:25;95898.78;;;25.00;40.14
27425;BME280;15244;49.088;11.886;2022-08-01T07:24:27;95896.00;;;25.00;40.13
27425;BME280;15244;49.088;11.886;2022-08-01T07:29:30;95918.09;;;25.03;40.07
27425;BME280;15244;49.088;11.886;2022-08-01T07:34:33;95896.69;;;25.09;40.05
27425;BME280;15244;49.088;11.886;2022-08-01T07:39:35;95888.50;;;25.06;40.55
27425;BME280;15244;49.088;11.886;2022-08-01T07:44:37;95897.47;;;25.10;40.48
27425;BME280;15244;49.088;11.886;2022-08-01T07:49:39;95899.75;;;25.21;40.43
27425;BME280;15244;49.088;11.886;2022-08-01T07:54:41;95898.31;;;25.25;40.45
27425;BME280;15244;49.088;11.886;2022-08-01T07:59:43;95898.06;;;25.38;40.46
27425;BME280;15244;49.088;11.886;2022-08-01T08:04:45;95898.00;;;25.47;40.19
27425;BME280;15244;49.088;11.886;2022-08-01T08:09:50;95887.41;;;25.66;40.19
27425;BME280;15244;49.088;11.886;2022-08-01T08:14:52;95892.34;;;25.71;40.16
27425;BME280;15244;49.088;11.886;2022-08-01T08:19:53;95895.16;;;25.86;39.79
27425;BME280;15244;49.088;11.886;2022-08-01T08:24:55;95882.34;;;25.94;40.09
27425;BME280;15244;49.088;11.886;2022-08-01T08:30:01;95895.72;;;26.05;39.47
27425;BME280;15244;49.088;11.886;2022-08-01T08:35:04;95897.38;;;26.12;39.54
27425;BME280;15244;49.088;11.886;2022-08-01T08:40:07;95892.53;;;26.27;39.22
27425;BME280;15244;49.088;11.886;2022-08-01T08:45:10;95896.97;;;26.34;38.89
27425;BME280;15244;49.088;11.886;2022-08-01T08:50:13;95893.00;;;26.41;38.95
27425;BME280;15244;49.088;11.886;2022-08-01T08:55:16;95890.09;;;26.50;39.24
27425;BME280;15244;49.088;11.886;2022-08-01T09:00:20;95894.94;;;26.49;38.88
27425;BME280;15244;49.088;11.886;2022-08-01T09:05:23;95894.34;;;26.60;38.33
27425;BME280;15244;49.088;11.886;2022-08-01T09:10:39;95890.38;;;26.67;38.02
27425;BME280;15244;49.088;11.886;2022-08-01T09:15:43;95890.25;;;26.76;37.66
27425;BME280;15244;49.088;11.886;2022-08-01T09:20:46;95891.88;;;26.83;37.29
27425;BME280;15244;49.088;11.886;2022-08-01T09:25:51;95897.06;;;26.90;36.62
27425;BME280;15244;49.088;11.886;2022-08-01T09:31:23;95902.78;;;27.01;36.92
27425;BME280;15244;49.088;11.886;2022-08-01T09:41:56;95911.34;;;27.12;36.10
27425;BME280;15244;49.088;11.886;2022-08-01T09:46:58;95896.19;;;27.19;35.63
27425;BME280;15244;49.088;11.886;2022-08-01T09:52:17;95896.47;;;27.21;35.47
27425;BME280;15244;49.088;11.886;2022-08-01T09:57:20;95896.28;;;27.25;35.67
27425;BME280;15244;49.088;11.886;2022-08-01T10:02:34;95902.22;;;27.32;34.88
27425;BME280;15244;49.088;11.886;2022-08-01T10:07:56;95883.03;;;27.45;34.99
27425;BME280;15244;49.088;11.886;2022-08-01T10:12:59;95882.66;;;27.58;34.62
27425;BME280;15244;49.088;11.886;2022-08-01T10:18:04;95891.88;;;27.64;34.71
27425;BME280;15244;49.088;11.886;2022-08-01T10:23:27;95886.25;;;27.64;34.38
27425;BME280;15244;49.088;11.886;2022-08-01T10:28:47;95882.97;;;27.66;34.75
27425;BME280;15244;49.088;11.886;2022-08-01T10:33:50;95880.94;;;27.66;34.63
27425;BME280;15244;49.088;11.886;2022-08-01T10:38:54;95885.97;;;27.62;34.62
27425;BME280;15244;49.088;11.886;2022-08-01T10:43:57;95882.69;;;27.64;34.92
27425;BME280;15244;49.088;11.886;2022-08-01T10:49:12;95874.44;;;27.75;34.54
27425;BME280;15244;49.088;11.886;2022-08-01T10:54:15;95869.00;;;27.92;34.56
27425;BME280;15244;49.088;11.886;2022-08-01T10:59:23;95871.41;;;28.05;34.45
27425;BME280;15244;49.088;11.886;2022-08-01T11:10:10;95856.84;;;28.33;34.30
27425;BME280;15244;49.088;11.886;2022-08-01T11:15:22;95865.34;;;28.44;33.32
27425;BME280;15244;49.088;11.886;2022-08-01T11:20:34;95848.38;;;28.59;32.89
27425;BME280;15244;49.088;11.886;2022-08-01T11:41:34;95867.03;;;28.67;33.34
27425;BME280;15244;49.088;11.886;2022-08-01T11:46:52;95856.38;;;28.71;32.69
27425;BME280;15244;49.088;11.886;2022-08-01T11:52:29;95861.72;;;28.69;32.98
27425;BME280;15244;49.088;11.886;2022-08-01T11:57:33;95865.78;;;28.68;32.70
27425;BME280;15244;49.088;11.886;2022-08-01T12:02:39;95861.91;;;28.60;32.79
27425;BME280;15244;49.088;11.886;2022-08-01T12:07:43;95856.88;;;28.70;33.10
27425;BME280;15244;49.088;11.886;2022-08-01T12:12:51;95858.63;;;28.67;32.65
27425;BME280;15244;49.088;11.886;2022-08-01T12:17:58;95846.66;;;28.72;33.01
27425;BME280;15244;49.088;11.886;2022-08-01T12:23:10;95855.09;;;28.72;32.32
27425;BME280;15244;49.088;11.886;2022-08-01T12:28:14;95861.75;;;28.81;32.23
27425;BME280;15244;49.088;11.886;2022-08-01T12:33:19;95858.75;;;28.90;32.25
27425;BME280;15244;49.088;11.886;2022-08-01T12:38:22;95859.78;;;28.87;32.60
27425;BME280;15244;49.088;11.886;2022-08-01T12:43:24;95863.34;;;28.93;32.06
27425;BME280;15244;49.088;11.886;2022-08-01T12:48:30;95845.34;;;29.05;32.50
27425;BME280;15244;49.088;11.886;2022-08-01T12:53:35;95846.44;;;29.30;31.88
27425;BME280;15244;49.088;11.886;2022-08-01T12:58:41;95837.28;;;29.52;31.59
27425;BME280;15244;49.088;11.886;2022-08-01T13:03:59;95834.53;;;29.64;30.83
27425;BME280;15244;49.088;11.886;2022-08-01T13:09:06;95822.06;;;29.70;30.70
27425;BME280;15244;49.088;11.886;2022-08-01T13:14:08;95808.78;;;29.71;30.13
27425;BME280;15244;49.088;11.886;2022-08-01T13:19:10;95823.09;;;29.78;29.63
27425;BME280;15244;49.088;11.886;2022-08-01T13:24:13;95794.72;;;29.88;29.67
27425;BME280;15244;49.088;11.886;2022-08-01T13:29:20;95796.78;;;29.98;29.79
27425;BME280;15244;49.088;11.886;2022-08-01T13:34:34;95798.56;;;30.07;29.47
27425;BME280;15244;49.088;11.886;2022-08-01T13:39:36;95791.41;;;30.06;28.97
27425;BME280;15244;49.088;11.886;2022-08-01T13:44:45;95785.78;;;30.06;28.51
27425;BME280;15244;49.088;11.886;2022-08-01T13:49:47;95782.19;;;30.11;28.39
27425;BME280;15244;49.088;11.886;2022-08-01T13:54:49;95779.38;;;30.28;28.52
27425;BME280;15244;49.088;11.886;2022-08-01T13:59:51;95779.88;;;30.38;27.33
27425;BME280;15244;49.088;11.886;2022-08-01T14:04:54;95778.81;;;30.52;27.85
27425;BME280;15244;49.088;11.886;2022-08-01T14:09:57;95781.59;;;30.63;27.62
27425;BME280;15244;49.088;11.886;2022-08-01T14:15:18;95776.72;;;30.75;27.43
27425;BME280;15244;49.088;11.886;2022-08-01T14:20:39;95775.16;;;30.80;27.43
27425;BME280;15244;49.088;11.886;2022-08-01T14:25:41;95782.06;;;30.79;27.02
27425;BME280;15244;49.088;11.886;2022-08-01T14:31:03;95783.56;;;30.91;27.05
27425;BME280;15244;49.088;11.886;2022-08-01T14:36:07;95780.72;;;31.02;26.88
27425;BME280;15244;49.088;11.886;2022-08-01T14:41:29;95780.16;;;31.15;26.90
27425;BME280;15244;49.088;11.886;2022-08-01T14:46:31;95778.31;;;31.23;26.60
27425;BME280;15244;49.088;11.886;2022-08-01T14:51:34;95779.81;;;31.30;26.34
27425;BME280;15244;49.088;11.886;2022-08-01T14:56:38;95788.06;;;31.17;25.85
27425;BME280;15244;49.088;11.886;2022-08-01T15:01:40;95780.81;;;31.33;26.56
27425;BME280;15244;49.088;11.886;2022-08-01T15:06:42;95771.31;;;31.41;26.26
27425;BME280;15244;49.088;11.886;2022-08-01T15:11:43;95785.16;;;31.34;26.26
27425;BME280;15244;49.088;11.886;2022-08-01T15:16:47;95780.56;;;31.30;26.36
27425;BME280;15244;49.088;11.886;2022-08-01T15:21:49;95794.69;;;31.25;26.48
27425;BME280;15244;49.088;11.886;2022-08-01T15:26:53;95785.97;;;31.28;27.12
27425;BME280;15244;49.088;11.886;2022-08-01T15:31:54;95788.75;;;31.34;26.63
27425;BME280;15244;49.088;11.886;2022-08-01T15:36:57;95795.91;;;31.35;26.92
27425;BME280;15244;49.088;11.886;2022-08-01T15:42:00;95796.72;;;31.24;27.25
27425;BME280;15244;49.088;11.886;2022-08-01T15:47:04;95794.69;;;31.19;27.18
27425;BME280;15244;49.088;11.886;2022-08-01T15:52:07;95796.50;;;31.22;27.02
27425;BME280;15244;49.088;11.886;2022-08-01T15:57:22;95799.31;;;31.22;26.87
27425;BME280;15244;49.088;11.886;2022-08-01T16:02:24;95789.06;;;31.19;27.07
27425;BME280;15244;49.088;11.886;2022-08-01T16:07:26;95792.16;;;31.16;26.81
27425;BME280;15244;49.088;11.886;2022-08-01T16:12:29;95800.91;;;31.12;26.57
27425;BME280;15244;49.088;11.886;2022-08-01T16:17:31;95798.88;;;31.01;26.54
27425;BME280;15244;49.088;11.886;2022-08-01T16:22:34;95792.50;;;31.01;26.68
27425;BME280;15244;49.088;11.886;2022-08-01T16:27:37;95790.94;;;31.05;26.61
27425;BME280;15244;49.088;11.886;2022-08-01T16:32:39;95785.59;;;31.02;27.11
27425;BME280;15244;49.088;11.886;2022-08-01T16:37:56;95793.31;;;30.90;27.33
27425;BME280;15244;49.088;11.886;2022-08-01T16:42:58;95790.00;;;30.80;27.43
27425;BME280;15244;49.088;11.886;2022-08-01T16:48:04;95785.41;;;30.77;27.75
27425;BME280;15244;49.088;11.886;2022-08-01T16:53:06;95776.19;;;30.82;27.89
27425;BME280;15244;49.088;11.886;2022-08-01T16:58:08;95769.53;;;30.85;27.61
27425;BME280;15244;49.088;11.886;2022-08-01T17:03:13;95773.63;;;30.84;27.79
27425;BME280;15244;49.088;11.886;2022-08-01T17:08:18;95770.53;;;30.88;27.98
27425;BME280;15244;49.088;11.886;2022-08-01T17:13:19;95784.59;;;30.94;27.84
27425;BME280;15244;49.088;11.886;2022-08-01T17:18:23;95775.34;;;30.99;27.76
27425;BME280;15244;49.088;11.886;2022-08-01T17:23:25;95793.78;;;31.00;27.57
27425;BME280;15244;49.088;11.886;2022-08-01T17:28:28;95802.00;;;30.92;27.91
27425;BME280;15244;49.088;11.886;2022-08-01T17:33:30;95806.13;;;30.80;27.87
27425;BME280;15244;49.088;11.886;2022-08-01T17:38:48;95803.59;;;30.65;27.90
27425;BME280;15244;49.088;11.886;2022-08-01T17:43:50;95812.56;;;30.58;27.82
27425;BME280;15244;49.088;11.886;2022-08-01T17:48:52;95814.38;;;30.50;27.83
27425;BME280;15244;49.088;11.886;2022-08-01T17:53:54;95816.44;;;30.43;28.14
27425;BME280;15244;49.088;11.886;2022-08-01T17:58:58;95825.13;;;30.40;28.36
27425;BME280;15244;49.088;11.886;2022-08-01T18:04:00;95822.06;;;30.32;28.12
27425;BME280;15244;49.088;11.886;2022-08-01T18:09:02;95821.56;;;30.28;28.44
27425;BME280;15244;49.088;11.886;2022-08-01T18:14:13;95825.41;;;30.25;28.72
27425;BME280;15244;49.088;11.886;2022-08-01T18:19:16;95834.31;;;30.18;28.79
27425;BME280;15244;49.088;11.886;2022-08-01T18:24:18;95830.00;;;30.06;28.92
27425;BME280;15244;49.088;11.886;2022-08-01T18:29:23;95838.91;;;29.93;29.07
27425;BME280;15244;49.088;11.886;2022-08-01T18:34:45;95837.91;;;29.85;29.33
27425;BME280;15244;49.088;11.886;2022-08-01T18:39:47;95844.00;;;29.77;29.50
27425;BME280;15244;49.088;11.886;2022-08-01T18:44:54;95849.13;;;29.68;29.90
27425;BME280;15244;49.088;11.886;2022-08-01T18:49:56;95861.06;;;29.57;30.04
27425;BME280;15244;49.088;11.886;2022-08-01T18:54:58;95858.72;;;29.38;30.28
27425;BME280;15244;49.088;11.886;2022-08-01T19:00:01;95864.03;;;29.25;30.78
27425;BME280;15244;49.088;11.886;2022-08-01T19:05:03;95869.09;;;29.15;30.61
27425;BME280;15244;49.088;11.886;2022-08-01T19:10:05;95872.91;;;29.07;31.10
27425;BME280;15244;49.088;11.886;2022-08-01T19:15:08;95872.56;;;28.99;30.96
27425;BME280;15244;49.088;11.886;2022-08-01T19:20:10;95877.13;;;28.96;30.99
27425;BME280;15244;49.088;11.886;2022-08-01T19:25:15;95880.97;;;28.93;31.16
27425;BME280;15244;49.088;11.886;2022-08-01T19:30:18;95892.66;;;28.86;31.46
27425;BME280;15244;49.088;11.886;2022-08-01T19:35:20;95893.59;;;28.72;31.87
27425;BME280;15244;49.088;11.886;2022-08-01T19:40:23;95900.41;;;28.60;31.92
27425;BME280;15244;49.088;11.886;2022-08-01T19:45:28;95906.44;;;28.47;32.16
27425;BME280;15244;49.088;11.886;2022-08-01T19:50:31;95900.97;;;28.38;32.46
27425;BME280;15244;49.088;11.886;2022-08-01T19:55:37;95907.09;;;28.36;32.27
27425;BME280;15244;49.088;11.886;2022-08-01T20:00:40;95919.34;;;28.39;32.23
27425;BME280;15244;49.088;11.886;2022-08-01T20:05:43;95918.84;;;28.40;32.41
27425;BME280;15244;49.088;11.886;2022-08-01T20:10:46;95930.63;;;28.44;32.51
27425;BME280;15244;49.088;11.886;2022-08-01T20:15:50;95930.63;;;28.44;32.37
27425;BME280;15244;49.088;11.886;2022-08-01T20:20:52;95934.19;;;28.45;32.86
27425;BME280;15244;49.088;11.886;2022-08-01T20:25:56;95927.53;;;28.42;32.63
27425;BME280;15244;49.088;11.886;2022-08-01T20:31:01;95927.25;;;28.40;32.81
27425;BME280;15244;49.088;11.886;2022-08-01T20:36:06;95930.28;;;28.37;33.09
27425;BME280;15244;49.088;11.886;2022-08-01T20:41:26;95922.31;;;28.29;33.36
27425;BME280;15244;49.088;11.886;2022-08-01T20:46:28;95916.13;;;28.20;33.09
27425;BME280;15244;49.088;11.886;2022-08-01T20:51:30;95922.59;;;28.05;33.46
27425;BME280;15244;49.088;11.886;2022-08-01T20:56:50;95915.38;;;27.93;33.27
27425;BME280;15244;49.088;11.886;2022-08-01T21:07:52;95939.63;;;27.76;33.58
27425;BME280;15244;49.088;11.886;2022-08-01T21:13:04;95941.84;;;27.72;34.00
27425;BME280;15244;49.088;11.886;2022-08-01T21:18:17;95952.22;;;27.65;34.05
27425;BME280;15244;49.088;11.886;2022-08-01T21:23:46;95955.47;;;27.58;34.17
27425;BME280;15244;49.088;11.886;2022-08-01T21:28:57;95963.78;;;27.53;34.41
27425;BME280;15244;49.088;11.886;2022-08-01T21:34:04;95967.31;;;27.48;34.55
27425;BME280;15244;49.088;11.886;2022-08-01T21:39:08;95963.16;;;27.43;34.63
27425;BME280;15244;49.088;11.886;2022-08-01T21:44:42;95968.19;;;27.39;35.04
27425;BME280;15244;49.088;11.886;2022-08-01T21:49:47;95962.81;;;27.35;35.06
27425;BME280;15244;49.088;11.886;2022-08-01T22:00:10;95971.28;;;27.20;34.95
27425;BME280;15244;49.088;11.886;2022-08-01T22:05:27;95971.34;;;27.11;35.10
27425;BME280;15244;49.088;11.886;2022-08-01T22:10:56;95977.84;;;27.02;35.01
27425;BME280;15244;49.088;11.886;2022-08-01T22:16:02;95986.19;;;26.97;35.55
27425;BME280;15244;49.088;11.886;2022-08-01T22:21:04;95977.22;;;26.93;35.70
27425;BME280;15244;49.088;11.886;2022-08-01T22:26:09;95982.72;;;26.87;35.70
27425;BME280;15244;49.088;11.886;2022-08-01T22:31:11;95973.75;;;26.83;35.69
27425;BME280;15244;49.088;11.886;2022-08-01T22:36:16;95973.38;;;26.75;36.05
27425;BME280;15244;49.088;11.886;2022-08-01T22:41:24;95971.28;;;26.70;35.81
27425;BME280;15244;49.088;11.886;2022-08-01T22:52:03;95978.69;;;26.58;35.93
27425;BME280;15244;49.088;11.886;2022-08-01T22:57:22;95979.84;;;26.52;35.94
27425;BME280;15244;49.088;11.886;2022-08-01T23:02:27;95969.06;;;26.45;36.67
27425;BME280;15244;49.088;11.886;2022-08-01T23:07:33;95967.41;;;26.38;36.25
27425;BME280;15244;49.088;11.886;2022-08-01T23:12:36;95957.22;;;26.35;36.79
27425;BME280;15244;49.088;11.886;2022-08-01T23:17:41;95970.63;;;26.31;37.00
27425;BME280;15244;49.088;11.886;2022-08-01T23:22:43;95971.28;;;26.26;36.75
27425;BME280;15244;49.088;11.886;2022-08-01T23:27:46;95969.19;;;26.21;36.86
27425;BME280;15244;49.088;11.886;2022-08-01T23:33:06;95984.47;;;26.10;37.11
27425;BME280;15244;49.088;11.886;2022-08-01T23:38:08;95991.78;;;25.93;37.40
27425;BME280;15244;49.088;11.886;2022-08-01T23:43:15;95995.47;;;25.75;37.60
27425;BME280;15244;49.088;11.886;2022-08-01T23:48:18;96003.31;;;25.62;38.08
27425;BME280;15244;49.088;11.886;2022-08-01T23:53:20;95994.72;;;25.50;38.59
27425;BME280;15244;49.088;11.886;2022-08-01T23:58:21;95996.03;;;25.40;39.20
